Terminal Aerodrome Forecast
Issued by NWS

Home | Current Version | Previous Version | Text Only | Print | Product List | Glossary On
Versions: 1 2 3 4 5 6 7 8 9 10 11 12 13 14 15 16 17 18 19 20 21 22 23 24 25 26 27 28 29 30 31 32 33 34 35 36 37 38 39 40 41 42 43 44 45 46 47 48 49 50
000
FTUS45 KBOU 221454 AAB
TAFBJC
TAF AMD
KBJC 221454Z 2215/2312 05003KT 5SM -DZ BR BKN005 OVC010
     FM221600 06004KT P6SM VCSH SCT005 BKN010
     FM221800 08006KT P6SM SCT010 BKN030
     FM222100 10007KT P6SM SCT050 SCT110
     FM230100 15006KT P6SM FEW050 SCT120
     FM230300 VRB05KT P6SM SCT150
     FM230500 24007KT P6SM SKC=

USA.gov is the U.S. government's official web portal to all federal, state and local government web resources and services.